createdAt,value
2018-05-13T00:01:13.922Z,97681.50
2018-05-13T00:03:41.365Z,97684.66
2018-05-13T00:06:08.817Z,97687.46
2018-05-13T00:08:36.293Z,97689.56
2018-05-13T00:11:03.748Z,97689.59
2018-05-13T00:13:31.814Z,97687.69
2018-05-13T00:15:59.314Z,97690.04
2018-05-13T00:18:26.757Z,97688.84
2018-05-13T00:26:53.037Z,97690.02
2018-05-13T00:29:20.599Z,97692.27
2018-05-13T00:31:48.171Z,97693.78
2018-05-13T00:34:15.701Z,97685.63
2018-05-13T00:36:43.215Z,97682.39
2018-05-13T00:39:10.762Z,97677.42
2018-05-13T00:41:38.306Z,97677.89
2018-05-13T00:44:05.829Z,97673.36
2018-05-13T00:46:33.348Z,97670.85
2018-05-13T00:49:00.878Z,97679.09
2018-05-13T00:51:28.437Z,97673.08
2018-05-13T00:53:56.060Z,97669.92
2018-05-13T00:56:23.573Z,97673.14
2018-05-13T00:58:51.280Z,97664.56
2018-05-13T01:01:18.836Z,97671.72
2018-05-13T01:03:46.345Z,97665.55
2018-05-13T01:06:13.928Z,97657.97
2018-05-13T01:08:41.487Z,97664.33
2018-05-13T01:11:09.020Z,97665.09
2018-05-13T01:13:36.574Z,97668.28
2018-05-13T01:16:04.103Z,97669.12
2018-05-13T01:18:31.661Z,97666.37
2018-05-13T01:21:00.057Z,97665.84
2018-05-13T01:23:27.585Z,97661.20
2018-05-13T01:25:55.120Z,97665.56
2018-05-13T01:28:22.677Z,97669.14
2018-05-13T01:30:50.205Z,97663.61
2018-05-13T01:33:17.824Z,97674.61
2018-05-13T01:35:45.441Z,97675.66
2018-05-13T01:38:12.952Z,97676.59
2018-05-13T01:40:40.503Z,97673.93
2018-05-13T01:43:08.027Z,97671.39
2018-05-13T01:45:35.633Z,97673.30
2018-05-13T01:48:03.174Z,97682.78
2018-05-13T01:50:30.725Z,97687.92
2018-05-13T01:52:58.255Z,97688.48
2018-05-13T01:55:25.806Z,97687.17
2018-05-13T01:57:53.628Z,97686.06
2018-05-13T02:00:21.215Z,97691.33
2018-05-13T02:02:49.257Z,97698.81
2018-05-13T02:05:16.799Z,97704.66
2018-05-13T02:07:44.399Z,97702.70
2018-05-13T02:10:11.940Z,97704.10
2018-05-13T02:12:39.513Z,97708.04
2018-05-13T02:15:07.174Z,97704.20
2018-05-13T02:17:34.715Z,97702.27
2018-05-13T02:20:02.249Z,97709.55
2018-05-13T02:22:29.836Z,97711.44
2018-05-13T02:24:57.374Z,97717.72
2018-05-13T02:27:24.928Z,97709.66
2018-05-13T02:29:52.500Z,97700.94
2018-05-13T02:32:20.053Z,97706.53
2018-05-13T02:34:47.637Z,97713.06
2018-05-13T02:37:16.219Z,97712.76
2018-05-13T02:39:43.885Z,97710.86
2018-05-13T02:42:11.426Z,97715.44
2018-05-13T02:44:38.977Z,97705.13
2018-05-13T02:47:06.499Z,97705.05
2018-05-13T02:49:34.035Z,97700.84
2018-05-13T02:52:01.576Z,97698.00
2018-05-13T02:54:29.106Z,97698.47
2018-05-13T02:56:56.622Z,97699.70
2018-05-13T02:59:24.297Z,97701.25
2018-05-13T03:01:51.941Z,97703.09
2018-05-13T03:04:19.575Z,97694.84
2018-05-13T03:06:47.127Z,97695.89
2018-05-13T03:09:14.666Z,97707.66
2018-05-13T03:11:42.212Z,97709.80
2018-05-13T03:14:09.760Z,97715.75
2018-05-13T03:16:37.371Z,97713.00
2018-05-13T03:19:05.037Z,97709.91
2018-05-13T03:21:32.676Z,97717.08
2018-05-13T03:24:00.259Z,97726.94
2018-05-13T03:26:27.793Z,97732.60
2018-05-13T03:28:55.362Z,97731.23
2018-05-13T03:31:22.894Z,97727.20
2018-05-13T03:33:50.456Z,97734.87
2018-05-13T03:36:18.006Z,97741.53
2018-05-13T03:38:45.517Z,97739.25
2018-05-13T03:41:13.029Z,97738.40
2018-05-13T03:43:40.591Z,97737.60
2018-05-13T03:46:08.135Z,97740.14
2018-05-13T03:48:35.734Z,97739.77
2018-05-13T03:51:03.278Z,97740.93
2018-05-13T03:53:30.831Z,97743.92
2018-05-13T03:55:58.379Z,97746.72
2018-05-13T03:58:25.973Z,97740.47
2018-05-13T04:00:54.324Z,97742.90
2018-05-13T04:03:21.848Z,97740.59
2018-05-13T04:05:49.379Z,97745.69
2018-05-13T04:11:39.651Z,97747.95
2018-05-13T04:14:19.111Z,97748.72
2018-05-13T04:16:46.633Z,97751.45
2018-05-13T04:19:14.196Z,97747.27
2018-05-13T04:21:41.729Z,97755.56
2018-05-13T04:24:09.216Z,97768.14
2018-05-13T04:26:36.782Z,97748.31
2018-05-13T04:29:04.352Z,97761.38
2018-05-13T04:31:31.864Z,97765.09
2018-05-13T04:33:59.399Z,97766.75
2018-05-13T04:36:26.952Z,97763.71
2018-05-13T04:38:54.461Z,97762.75
2018-05-13T04:41:21.979Z,97761.27
2018-05-13T04:43:49.550Z,97765.60
2018-05-13T04:46:17.107Z,97767.87
2018-05-13T04:48:44.778Z,97767.69
2018-05-13T04:51:12.321Z,97769.57
2018-05-13T04:53:39.893Z,97759.45
2018-05-13T04:56:07.430Z,97762.80
2018-05-13T04:58:34.959Z,97764.78
2018-05-13T05:01:02.592Z,97767.22
2018-05-13T05:03:30.146Z,97771.96
2018-05-13T05:05:57.677Z,97775.43
2018-05-13T05:08:25.224Z,97772.09
2018-05-13T05:10:52.749Z,97769.98
2018-05-13T05:13:20.457Z,97769.92
2018-05-13T05:15:48.021Z,97775.52
2018-05-13T05:18:15.572Z,97774.20
2018-05-13T05:20:43.114Z,97781.48
2018-05-13T05:23:10.655Z,97773.92
2018-05-13T05:25:38.329Z,97776.86
2018-05-13T05:28:06.108Z,97779.27
2018-05-13T05:30:33.691Z,97778.83
2018-05-13T05:33:01.246Z,97774.25
2018-05-13T05:35:28.791Z,97778.77
2018-05-13T05:37:56.317Z,97785.65
2018-05-13T05:40:23.839Z,97784.45
2018-05-13T05:42:51.375Z,97781.98
2018-05-13T05:45:18.901Z,97781.16
2018-05-13T05:47:46.452Z,97788.80
2018-05-13T05:50:14.018Z,97794.95
2018-05-13T05:52:41.632Z,97795.98
2018-05-13T05:55:09.179Z,97795.34
2018-05-13T05:57:36.706Z,97797.66
2018-05-13T06:00:04.316Z,97796.75
2018-05-13T06:02:31.930Z,97792.77
2018-05-13T06:04:59.492Z,97794.02
2018-05-13T06:07:27.044Z,97790.67
2018-05-13T06:09:54.600Z,97786.11
2018-05-13T06:12:22.173Z,97788.14
2018-05-13T06:14:49.940Z,97785.58
2018-05-13T06:17:17.521Z,97771.67
2018-05-13T06:19:45.109Z,97778.95
2018-05-13T06:22:12.592Z,97782.24
2018-05-13T06:24:40.128Z,97786.70
2018-05-13T06:27:07.684Z,97782.37
2018-05-13T06:29:35.264Z,97782.73
2018-05-13T06:32:02.874Z,97779.88
2018-05-13T06:34:30.700Z,97777.92
2018-05-13T06:36:58.299Z,97769.48
2018-05-13T06:39:25.824Z,97768.46
2018-05-13T06:41:53.393Z,97756.25
2018-05-13T06:44:21.085Z,97751.63
2018-05-13T06:46:48.648Z,97749.37
2018-05-13T06:49:16.208Z,97752.41
2018-05-13T06:51:43.800Z,97750.53
2018-05-13T06:54:11.345Z,97751.08
2018-05-13T06:56:39.197Z,97751.25
2018-05-13T06:59:06.727Z,97745.73
2018-05-13T07:01:34.282Z,97749.81
2018-05-13T07:04:01.863Z,97752.25
2018-05-13T07:06:29.445Z,97754.25
2018-05-13T07:08:56.961Z,97756.11
2018-05-13T07:11:24.494Z,97755.54
2018-05-13T07:13:52.040Z,97763.38
2018-05-13T07:16:19.534Z,97758.81
2018-05-13T07:18:47.068Z,97761.81
2018-05-13T07:21:14.677Z,97763.76
2018-05-13T07:23:42.224Z,97767.20
2018-05-13T07:26:09.798Z,97760.92
2018-05-13T07:28:37.435Z,97763.15
2018-05-13T07:31:04.955Z,97759.32
2018-05-13T07:33:32.467Z,97749.67
2018-05-13T07:36:00.114Z,97752.55
2018-05-13T07:38:27.664Z,97746.95
2018-05-13T07:40:55.564Z,97752.77
2018-05-13T07:43:23.172Z,97744.94
2018-05-13T07:45:50.719Z,97745.72
2018-05-13T07:48:18.250Z,97756.52
2018-05-13T07:50:45.929Z,97747.86
2018-05-13T07:53:13.474Z,97747.70
2018-05-13T07:55:41.118Z,97758.90
2018-05-13T07:58:08.789Z,97755.67
2018-05-13T08:00:36.315Z,97749.66
2018-05-13T08:03:04.005Z,97747.81
2018-05-13T08:05:31.519Z,97756.23
2018-05-13T08:07:59.128Z,97757.53
2018-05-13T08:10:26.825Z,97744.54
2018-05-13T08:12:54.379Z,97751.28
2018-05-13T08:15:21.930Z,97754.53
2018-05-13T08:17:49.560Z,97754.06
2018-05-13T08:20:17.113Z,97765.14
2018-05-13T08:22:44.776Z,97751.49
2018-05-13T08:25:12.321Z,97755.66
2018-05-13T08:27:39.917Z,97748.77
2018-05-13T08:30:07.451Z,97745.45
2018-05-13T08:32:35.033Z,97749.91
2018-05-13T08:35:02.589Z,97745.05
2018-05-13T08:37:30.247Z,97748.36
2018-05-13T08:39:58.392Z,97752.13
2018-05-13T08:42:25.937Z,97750.84
2018-05-13T08:44:53.555Z,97752.13
2018-05-13T08:47:21.101Z,97740.83
2018-05-13T08:49:49.476Z,97739.70
2018-05-13T08:52:17.067Z,97741.66
2018-05-13T08:54:44.592Z,97739.75
2018-05-13T08:57:12.368Z,97736.39
2018-05-13T08:59:39.947Z,97733.05
2018-05-13T09:02:07.485Z,97732.78
2018-05-13T09:04:34.995Z,97730.29
2018-05-13T09:07:02.501Z,97724.99
2018-05-13T09:09:30.053Z,97725.03
2018-05-13T09:11:57.642Z,97725.28
2018-05-13T09:14:25.175Z,97736.75
2018-05-13T09:16:52.726Z,97732.91
2018-05-13T09:19:20.277Z,97729.48
2018-05-13T09:21:47.802Z,97729.55
2018-05-13T09:24:15.351Z,97738.08
2018-05-13T09:26:43.006Z,97739.50
2018-05-13T09:29:10.525Z,97739.75
2018-05-13T09:31:38.216Z,97737.10
2018-05-13T09:34:05.749Z,97731.98
2018-05-13T09:36:33.421Z,97735.23
2018-05-13T09:39:00.963Z,97742.53
2018-05-13T09:41:28.495Z,97740.17
2018-05-13T09:43:56.038Z,97749.95
2018-05-13T09:46:23.636Z,97749.11
2018-05-13T09:48:51.215Z,97751.66
2018-05-13T09:51:18.781Z,97752.80
2018-05-13T09:53:46.499Z,97758.81
2018-05-13T09:56:14.056Z,97749.25
2018-05-13T09:58:41.660Z,97747.31
2018-05-13T10:01:09.221Z,97754.27
2018-05-13T10:03:36.791Z,97744.27
2018-05-13T10:06:04.401Z,97744.77
2018-05-13T10:08:31.967Z,97748.92
2018-05-13T10:10:59.491Z,97751.72
2018-05-13T10:13:27.612Z,97747.64
2018-05-13T10:15:55.203Z,97747.91
2018-05-13T10:18:22.860Z,97746.16
2018-05-13T10:20:50.668Z,97753.61
2018-05-13T10:23:18.215Z,97751.50
2018-05-13T10:25:45.838Z,97759.59
2018-05-13T10:28:13.363Z,97761.77
2018-05-13T10:30:41.445Z,97756.28
2018-05-13T10:33:08.956Z,97764.22
2018-05-13T10:35:36.509Z,97764.16
2018-05-13T10:38:04.039Z,97766.77
2018-05-13T10:40:31.583Z,97772.03
2018-05-13T10:42:59.085Z,97768.31
2018-05-13T10:45:26.634Z,97771.39
2018-05-13T10:47:54.174Z,97771.54
2018-05-13T10:50:21.761Z,97768.28
2018-05-13T10:52:49.286Z,97766.19
2018-05-13T10:55:16.857Z,97766.59
2018-05-13T10:57:44.428Z,97764.25
2018-05-13T11:00:11.986Z,97766.47
2018-05-13T11:02:39.749Z,97762.08
2018-05-13T11:05:07.488Z,97763.41
2018-05-13T11:07:35.564Z,97766.86
2018-05-13T11:10:03.152Z,97767.80
2018-05-13T11:12:31.320Z,97759.71
2018-05-13T11:14:58.904Z,97759.95
2018-05-13T11:17:26.741Z,97766.13
2018-05-13T11:19:54.301Z,97763.17
2018-05-13T11:22:21.852Z,97758.09
2018-05-13T11:24:49.399Z,97750.41
2018-05-13T11:27:16.941Z,97749.09
2018-05-13T11:29:44.476Z,97741.62
2018-05-13T11:32:12.052Z,97740.76
2018-05-13T11:34:39.584Z,97732.20
2018-05-13T11:37:07.125Z,97724.13
2018-05-13T11:39:34.676Z,97724.33
2018-05-13T11:42:02.219Z,97719.91
2018-05-13T11:44:29.847Z,97721.71
2018-05-13T11:46:57.360Z,97718.98
2018-05-13T11:49:24.888Z,97724.09
2018-05-13T11:51:52.449Z,97717.39
2018-05-13T11:54:20.677Z,97720.30
2018-05-13T11:56:48.209Z,97717.44
2018-05-13T11:59:15.727Z,97709.57
2018-05-13T12:01:43.261Z,97711.12
2018-05-13T12:04:10.790Z,97705.09
2018-05-13T12:06:38.335Z,97711.40
2018-05-13T12:09:05.914Z,97706.95
2018-05-13T12:11:33.466Z,97702.58
2018-05-13T12:14:01.000Z,97703.30
2018-05-13T12:16:28.590Z,97706.75
2018-05-13T12:18:56.141Z,97703.71
2018-05-13T12:21:23.700Z,97694.70
2018-05-13T12:23:51.277Z,97692.34
2018-05-13T12:26:18.835Z,97693.34
2018-05-13T12:28:46.385Z,97686.16
2018-05-13T12:31:13.915Z,97682.47
2018-05-13T12:33:41.456Z,97672.91
2018-05-13T12:36:08.996Z,97665.91
2018-05-13T12:38:36.521Z,97658.56
2018-05-13T12:41:04.080Z,97644.95
2018-05-13T12:43:31.613Z,97644.30
2018-05-13T12:45:59.148Z,97643.41
2018-05-13T12:48:26.671Z,97642.11
2018-05-13T12:50:54.199Z,97645.44
2018-05-13T12:53:21.779Z,97642.66
2018-05-13T12:55:49.413Z,97638.02
2018-05-13T12:58:16.983Z,97637.99
2018-05-13T13:00:44.498Z,97643.70
2018-05-13T13:03:12.040Z,97641.78
2018-05-13T13:05:39.571Z,97643.99
2018-05-13T13:08:07.091Z,97641.95
2018-05-13T13:10:34.674Z,97640.84
2018-05-13T13:13:02.400Z,97640.27
2018-05-13T13:15:30.006Z,97634.58
2018-05-13T13:17:58.103Z,97631.12
2018-05-13T13:20:25.639Z,97648.31
2018-05-13T13:22:53.209Z,97638.78
2018-05-13T13:25:20.739Z,97639.73
2018-05-13T13:27:48.270Z,97639.48
2018-05-13T13:30:16.078Z,97640.72
2018-05-13T13:32:43.685Z,97634.56
2018-05-13T13:35:11.221Z,97622.95
2018-05-13T13:37:38.757Z,97621.15
2018-05-13T13:40:06.359Z,97619.09
2018-05-13T13:42:34.324Z,97619.97
2018-05-13T13:45:01.946Z,97610.84
2018-05-13T13:47:34.005Z,97608.95
2018-05-13T13:50:02.360Z,97605.24
2018-05-13T13:52:29.983Z,97603.66
2018-05-13T13:54:57.531Z,97605.64
2018-05-13T13:57:25.201Z,97614.46
2018-05-13T13:59:52.750Z,97613.17
2018-05-13T14:02:20.303Z,97615.64
2018-05-13T14:04:47.844Z,97616.47
2018-05-13T14:07:15.384Z,97617.55
2018-05-13T14:09:42.914Z,97617.37
2018-05-13T14:12:10.506Z,97617.91
2018-05-13T14:14:38.194Z,97608.21
2018-05-13T14:17:05.736Z,97616.97
2018-05-13T14:19:33.285Z,97626.60
2018-05-13T14:22:00.853Z,97626.56
2018-05-13T14:24:28.411Z,97622.64
2018-05-13T14:26:55.998Z,97628.07
2018-05-13T14:29:23.508Z,97617.23
2018-05-13T14:31:51.084Z,97616.84
2018-05-13T14:34:18.666Z,97605.98
2018-05-13T14:36:46.235Z,97605.99
2018-05-13T14:39:13.822Z,97601.97
2018-05-13T14:41:41.864Z,97590.08
2018-05-13T14:44:09.523Z,97588.27
2018-05-13T14:46:37.121Z,97587.69
2018-05-13T14:49:04.814Z,97585.66
2018-05-13T14:51:32.434Z,97590.25
2018-05-13T14:54:00.220Z,97584.43
2018-05-13T14:56:27.845Z,97585.34
2018-05-13T14:58:55.368Z,97579.27
2018-05-13T15:01:23.070Z,97586.23
2018-05-13T15:03:50.636Z,97575.28
2018-05-13T15:06:18.179Z,97569.27
2018-05-13T15:08:45.905Z,97577.27
2018-05-13T15:11:13.426Z,97570.84
2018-05-13T15:13:40.988Z,97566.58
2018-05-13T15:16:10.203Z,97565.98
2018-05-13T15:18:38.527Z,97563.30
2018-05-13T15:21:06.224Z,97570.41
2018-05-13T15:23:33.853Z,97569.67
2018-05-13T15:26:01.418Z,97572.31
2018-05-13T15:28:29.218Z,97578.41
2018-05-13T15:30:57.401Z,97576.56
2018-05-13T15:33:24.996Z,97576.63
2018-05-13T15:35:52.547Z,97574.44
2018-05-13T15:38:20.100Z,97578.66
2018-05-13T15:40:47.618Z,97578.23
2018-05-13T15:43:15.269Z,97573.78
2018-05-13T15:45:42.762Z,97567.97
2018-05-13T15:48:10.429Z,97569.16
2018-05-13T15:50:39.049Z,97568.65
2018-05-13T15:53:07.243Z,97574.34
2018-05-13T15:55:34.806Z,97579.73
2018-05-13T15:58:04.689Z,97586.66
2018-05-13T16:00:32.336Z,97587.63
2018-05-13T16:03:00.036Z,97591.68
2018-05-13T16:05:27.614Z,97596.02
2018-05-13T16:07:55.179Z,97597.44
2018-05-13T16:10:22.726Z,97599.44
2018-05-13T16:12:50.267Z,97594.34
2018-05-13T16:15:17.812Z,97596.80
2018-05-13T16:17:45.381Z,97587.75
2018-05-13T16:20:13.035Z,97585.06
2018-05-13T16:22:40.713Z,97578.83
2018-05-13T16:25:08.290Z,97577.92
2018-05-13T16:27:35.900Z,97580.08
2018-05-13T16:30:03.532Z,97575.41
2018-05-13T16:32:31.083Z,97570.01
2018-05-13T16:34:58.654Z,97567.88
2018-05-13T16:37:26.250Z,97564.34
2018-05-13T16:39:53.816Z,97566.11
2018-05-13T16:42:21.362Z,97562.31
2018-05-13T16:44:48.940Z,97566.52
2018-05-13T16:47:16.484Z,97566.90
2018-05-13T16:49:44.030Z,97571.59
2018-05-13T16:52:11.603Z,97569.42
2018-05-13T16:54:39.190Z,97566.89
2018-05-13T16:57:06.736Z,97556.42
2018-05-13T16:59:34.278Z,97555.06
2018-05-13T17:02:01.824Z,97559.00
2018-05-13T17:04:30.259Z,97554.03
2018-05-13T17:06:57.814Z,97550.42
2018-05-13T17:09:25.478Z,97553.78
2018-05-13T17:11:52.933Z,97553.77
2018-05-13T17:14:20.538Z,97554.80
2018-05-13T17:16:48.079Z,97551.48
2018-05-13T17:19:15.628Z,97553.85
2018-05-13T17:21:43.222Z,97547.26
2018-05-13T17:24:10.843Z,97544.08
2018-05-13T17:26:38.503Z,97539.40
2018-05-13T17:29:06.136Z,97532.48
2018-05-13T17:31:33.691Z,97531.25
2018-05-13T17:34:01.377Z,97530.92
2018-05-13T17:36:28.898Z,97539.95
2018-05-13T17:38:56.444Z,97556.86
2018-05-13T17:41:24.227Z,97556.88
2018-05-13T17:43:52.946Z,97560.84
2018-05-13T17:46:20.465Z,97563.09
2018-05-13T17:48:48.171Z,97558.41
2018-05-13T17:51:15.695Z,97558.58
2018-05-13T17:53:43.322Z,97567.64
2018-05-13T17:56:11.910Z,97570.88
2018-05-13T17:58:43.346Z,97575.96
2018-05-13T18:01:12.084Z,97575.67
2018-05-13T18:03:39.880Z,97568.42
2018-05-13T18:06:07.427Z,97568.89
2018-05-13T18:08:35.164Z,97570.74
2018-05-13T18:11:03.098Z,97569.77
2018-05-13T18:13:30.752Z,97579.20
2018-05-13T18:15:59.115Z,97579.45
2018-05-13T18:18:26.664Z,97575.31
2018-05-13T18:20:54.251Z,97584.51
2018-05-13T18:23:22.788Z,97577.02
2018-05-13T18:25:50.782Z,97581.86
2018-05-13T18:28:18.380Z,97578.50
2018-05-13T18:30:45.916Z,97574.94
2018-05-13T18:33:13.482Z,97578.84
2018-05-13T18:35:41.342Z,97571.08
2018-05-13T18:38:08.932Z,97570.43
2018-05-13T18:40:36.513Z,97570.78
2018-05-13T18:43:04.063Z,97565.61
2018-05-13T18:45:31.873Z,97565.98
2018-05-13T18:47:59.411Z,97565.51
2018-05-13T18:50:28.012Z,97572.88
2018-05-13T18:52:55.732Z,97556.50
2018-05-13T18:55:23.746Z,97559.28
2018-05-13T18:57:51.733Z,97554.81
2018-05-13T19:00:19.328Z,97551.07
2018-05-13T19:02:47.000Z,97551.53
2018-05-13T19:05:14.636Z,97547.33
2018-05-13T19:07:42.324Z,97545.70
2018-05-13T19:10:09.859Z,97550.75
2018-05-13T19:12:37.379Z,97547.09
2018-05-13T19:15:05.175Z,97548.47
2018-05-13T19:17:32.761Z,97555.91
2018-05-13T19:20:00.409Z,97546.78
2018-05-13T19:22:31.577Z,97544.31
2018-05-13T19:24:59.132Z,97538.73
2018-05-13T19:27:28.063Z,97551.36
2018-05-13T19:29:55.732Z,97556.10
2018-05-13T19:32:24.385Z,97556.53
2018-05-13T19:34:52.002Z,97562.11
2018-05-13T19:37:19.579Z,97563.98
2018-05-13T19:39:47.241Z,97563.02
2018-05-13T19:42:16.154Z,97565.39
2018-05-13T19:44:45.331Z,97570.33
2018-05-13T19:47:13.454Z,97554.72
2018-05-13T19:49:43.451Z,97570.13
2018-05-13T19:52:11.663Z,97547.59
2018-05-13T19:54:39.763Z,97554.52
2018-05-13T19:57:29.337Z,97561.25
2018-05-13T19:59:58.485Z,97555.70
2018-05-13T20:02:28.501Z,97542.95
2018-05-13T20:05:16.632Z,97541.52
2018-05-13T20:10:33.333Z,97556.69
2018-05-13T20:13:07.915Z,97557.27
2018-05-13T20:15:36.578Z,97557.69
2018-05-13T20:18:05.786Z,97553.70
2018-05-13T20:20:37.128Z,97536.75
2018-05-13T20:23:18.536Z,97527.56
2018-05-13T20:25:49.891Z,97542.70
2018-05-13T20:28:21.391Z,97551.77
2018-05-13T20:30:53.866Z,97553.44
2018-05-13T20:33:26.412Z,97556.91
2018-05-13T20:38:41.654Z,97561.14
2018-05-13T20:41:23.996Z,97565.34
2018-05-13T20:43:57.641Z,97569.66
2018-05-13T20:46:30.078Z,97572.80
2018-05-13T20:48:58.419Z,97576.76
2018-05-13T20:51:31.704Z,97583.55
2018-05-13T20:54:04.082Z,97588.77
2018-05-13T20:56:33.162Z,97586.05
2018-05-13T20:59:03.333Z,97589.81
2018-05-13T21:01:34.009Z,97592.30
2018-05-13T21:04:05.312Z,97593.35
2018-05-13T21:06:35.181Z,97585.15
2018-05-13T21:09:09.026Z,97593.02
2018-05-13T21:39:53.173Z,97609.73
2018-05-13T21:42:33.491Z,97607.13
2018-05-13T21:45:02.828Z,97610.77
2018-05-13T21:47:30.797Z,97615.52
2018-05-13T21:49:58.664Z,97612.08
2018-05-13T21:52:27.188Z,97609.23
2018-05-13T21:54:57.266Z,97605.97
2018-05-13T21:57:26.446Z,97607.58
2018-05-13T21:59:56.275Z,97599.45
2018-05-13T22:02:49.476Z,97591.11
2018-05-13T22:57:21.859Z,97545.44
2018-05-13T23:00:09.601Z,97537.23
